createdAt,value
2022-09-28T00:02:25.724Z,9.45
2022-09-28T00:04:52.571Z,9.32
2022-09-28T00:07:19.837Z,5.93
2022-09-28T00:09:46.705Z,8.13
2022-09-28T00:12:13.502Z,7.18
2022-09-28T00:14:40.763Z,5.88
2022-09-28T00:17:08.375Z,9.45
2022-09-28T00:19:35.238Z,5.45
2022-09-28T00:22:02.125Z,5.60
2022-09-28T00:24:29.729Z,9.65
2022-09-28T00:26:58.897Z,10.15
2022-09-28T00:29:31.586Z,7.78
2022-09-28T00:32:11.818Z,12.60
2022-09-28T00:34:42.425Z,8.82
2022-09-28T00:37:10.295Z,11.45
2022-09-28T00:39:38.521Z,11.27
2022-09-28T00:42:14.629Z,6.18
2022-09-28T00:44:49.085Z,8.55
2022-09-28T00:47:21.957Z,9.77
2022-09-28T00:49:54.928Z,11.73
2022-09-28T00:52:37.051Z,8.80
2022-09-28T00:55:08.466Z,9.05
2022-09-28T00:57:37.423Z,10.50
2022-09-28T01:00:06.173Z,8.32
2022-09-28T01:02:33.133Z,8.40
2022-09-28T01:05:01.585Z,9.18
2022-09-28T01:07:29.160Z,10.23
2022-09-28T01:09:56.433Z,8.60
2022-09-28T01:12:23.493Z,11.13
2022-09-28T01:14:51.862Z,9.10
2022-09-28T01:17:51.082Z,14.77
2022-09-28T01:20:47.363Z,8.25
2022-09-28T01:23:26.226Z,9.70
2022-09-28T01:26:16.349Z,9.20
2022-09-28T01:28:45.557Z,6.32
2022-09-28T01:31:17.995Z,5.50
2022-09-28T01:33:46.748Z,7.63
2022-09-28T01:36:28.191Z,13.52
2022-09-28T01:39:10.821Z,7.88
2022-09-28T01:41:41.389Z,13.10
2022-09-28T01:44:14.233Z,11.25
2022-09-28T01:46:45.510Z,7.18
2022-09-28T01:49:25.855Z,6.93
2022-09-28T01:51:57.302Z,6.50
2022-09-28T01:55:02.513Z,11.05
2022-09-28T01:57:48.072Z,4.05
2022-09-28T02:00:16.453Z,8.30
2022-09-28T02:03:16.940Z,7.57
2022-09-28T02:06:11.190Z,7.47
2022-09-28T02:08:48.272Z,7.10
2022-09-28T02:11:17.472Z,4.45
2022-09-28T02:14:06.921Z,5.55
2022-09-28T02:16:43.020Z,4.63
2022-09-28T02:19:26.016Z,8.18
2022-09-28T02:22:25.083Z,8.98
2022-09-28T02:25:03.512Z,4.85
2022-09-28T02:27:42.546Z,4.97
2022-09-28T02:30:10.585Z,9.57
2022-09-28T02:32:41.361Z,6.90
2022-09-28T02:35:12.214Z,11.85
2022-09-28T02:37:40.403Z,11.00
2022-09-28T02:40:31.990Z,9.45
2022-09-28T02:43:18.146Z,10.90
2022-09-28T02:46:02.304Z,10.23
2022-09-28T02:49:17.258Z,6.93
2022-09-28T02:52:28.040Z,7.72
2022-09-28T02:55:04.025Z,10.90
2022-09-28T02:58:17.323Z,15.23
2022-09-28T03:01:08.809Z,10.07
2022-09-28T03:03:53.408Z,9.98
2022-09-28T03:06:38.247Z,8.02
2022-09-28T03:09:28.767Z,8.93
2022-09-28T03:12:05.085Z,10.13
2022-09-28T03:14:32.253Z,9.15
2022-09-28T03:16:59.212Z,12.68
2022-09-28T03:19:31.500Z,9.68
2022-09-28T03:21:59.452Z,6.38
2022-09-28T03:24:27.226Z,12.52
2022-09-28T03:26:54.553Z,6.28
2022-09-28T03:29:21.476Z,6.85
2022-09-28T03:31:49.248Z,8.88
2022-09-28T03:34:16.433Z,6.40
2022-09-28T03:36:43.590Z,9.35
2022-09-28T03:39:10.554Z,5.72
2022-09-28T03:41:38.343Z,5.05
2022-09-28T03:44:05.444Z,11.48
2022-09-28T03:46:32.469Z,7.10
2022-09-28T03:48:59.460Z,10.30
2022-09-28T03:51:26.852Z,11.77
2022-09-28T03:53:53.832Z,9.80
2022-09-28T03:56:20.651Z,11.70
2022-09-28T03:58:47.539Z,7.03
2022-09-28T04:01:17.660Z,11.60
2022-09-28T04:03:45.680Z,7.53
2022-09-28T04:06:13.832Z,12.80
2022-09-28T04:08:40.850Z,7.30
2022-09-28T04:11:07.998Z,10.98
2022-09-28T04:13:35.123Z,10.73
2022-09-28T04:16:02.459Z,10.63
2022-09-28T04:18:29.856Z,10.65
2022-09-28T04:21:03.547Z,12.57
2022-09-28T04:23:30.725Z,31.15
2022-09-28T04:25:57.717Z,45.33
2022-09-28T04:28:43.979Z,41.08
2022-09-28T04:31:17.167Z,16.85
2022-09-28T04:33:44.268Z,9.70
2022-09-28T04:36:11.438Z,10.27
2022-09-28T04:38:52.401Z,14.70
2022-09-28T04:41:22.401Z,11.52
2022-09-28T04:43:50.337Z,20.20
2022-09-28T04:46:17.952Z,17.15
2022-09-28T04:48:45.388Z,13.60
2022-09-28T04:51:12.668Z,8.20
2022-09-28T04:53:39.549Z,8.45
2022-09-28T04:56:10.727Z,10.35
2022-09-28T04:58:38.275Z,12.23
2022-09-28T05:01:08.451Z,13.15
2022-09-28T05:03:36.263Z,11.77
2022-09-28T05:06:03.830Z,11.80
2022-09-28T05:08:31.050Z,10.32
2022-09-28T05:11:07.650Z,8.85
2022-09-28T05:13:42.165Z,9.10
2022-09-28T05:16:13.896Z,11.65
2022-09-28T05:18:40.835Z,13.27
2022-09-28T05:21:15.308Z,12.80
2022-09-28T05:23:47.524Z,8.57
2022-09-28T05:26:15.484Z,12.45
2022-09-28T05:28:46.484Z,10.15
2022-09-28T05:31:13.988Z,11.20
2022-09-28T05:33:41.004Z,12.35
2022-09-28T05:36:11.006Z,7.50
2022-09-28T05:38:38.652Z,7.15
2022-09-28T05:41:06.813Z,16.48
2022-09-28T05:43:34.551Z,13.85
2022-09-28T05:46:01.532Z,14.05
2022-09-28T05:48:28.509Z,11.30
2022-09-28T05:50:56.143Z,15.00
2022-09-28T05:53:23.093Z,12.35
2022-09-28T05:55:49.855Z,14.52
2022-09-28T05:58:17.045Z,13.20
2022-09-28T06:00:44.054Z,12.25
2022-09-28T06:03:13.427Z,10.73
2022-09-28T06:05:40.793Z,9.10
2022-09-28T06:08:10.756Z,6.50
2022-09-28T06:10:38.271Z,7.70
2022-09-28T06:13:06.526Z,11.02
2022-09-28T06:15:34.954Z,12.07
2022-09-28T06:18:05.055Z,6.47
2022-09-28T06:20:35.676Z,15.80
2022-09-28T06:23:02.910Z,7.20
2022-09-28T06:25:29.852Z,7.82
2022-09-28T06:28:07.311Z,10.73
2022-09-28T06:30:38.152Z,11.73
2022-09-28T06:33:07.179Z,13.15
2022-09-28T06:35:34.947Z,10.77
2022-09-28T06:38:02.208Z,12.70
2022-09-28T06:40:29.768Z,12.52
2022-09-28T06:42:57.842Z,8.27
2022-09-28T06:45:25.602Z,15.80
2022-09-28T06:48:11.495Z,12.95
2022-09-28T06:50:41.028Z,10.50
2022-09-28T06:53:10.890Z,11.52
2022-09-28T06:55:42.875Z,12.32
2022-09-28T06:58:16.100Z,11.77
2022-09-28T07:00:44.123Z,14.82
2022-09-28T07:03:16.823Z,13.82
2022-09-28T07:05:46.747Z,11.30
2022-09-28T07:08:15.088Z,17.23
2022-09-28T07:10:47.801Z,13.57
2022-09-28T07:13:39.443Z,13.40
2022-09-28T07:16:03.577Z,15.57
2022-09-28T07:18:30.425Z,18.45
2022-09-28T07:20:57.679Z,13.45
2022-09-28T07:23:27.556Z,14.82
2022-09-28T07:25:54.760Z,12.75
2022-09-28T07:28:22.377Z,18.25
2022-09-28T07:30:49.436Z,13.65
2022-09-28T07:33:17.727Z,12.98
2022-09-28T07:35:55.723Z,16.98
2022-09-28T07:38:22.925Z,16.80
2022-09-28T07:41:08.545Z,12.25
2022-09-28T07:43:35.464Z,14.23
2022-09-28T07:46:02.339Z,19.52
2022-09-28T07:48:38.014Z,11.95
2022-09-28T07:51:05.312Z,20.15
2022-09-28T07:53:32.312Z,14.63
2022-09-28T07:56:02.243Z,9.35
2022-09-28T07:58:29.556Z,16.70
2022-09-28T08:00:56.630Z,12.70
2022-09-28T08:03:23.528Z,15.60
2022-09-28T08:05:50.543Z,9.85
2022-09-28T08:08:18.538Z,7.45
2022-09-28T08:10:47.311Z,16.25
2022-09-28T08:13:16.391Z,12.68
2022-09-28T08:15:43.240Z,11.25
2022-09-28T08:18:10.655Z,11.13
2022-09-28T08:20:56.091Z,17.73
2022-09-28T08:23:23.683Z,9.65
2022-09-28T08:25:54.195Z,13.30
2022-09-28T08:28:23.847Z,10.70
2022-09-28T08:30:51.037Z,11.52
2022-09-28T08:33:21.535Z,10.25
2022-09-28T08:35:55.796Z,9.50
2022-09-28T08:38:22.848Z,8.20
2022-09-28T08:40:49.836Z,9.15
2022-09-28T08:43:46.913Z,8.35
2022-09-28T08:46:22.680Z,10.55
2022-09-28T08:49:13.325Z,14.57
2022-09-28T08:52:06.928Z,9.93
2022-09-28T08:54:49.156Z,9.65
2022-09-28T08:57:20.822Z,8.93
2022-09-28T08:59:51.338Z,6.95
2022-09-28T09:02:33.570Z,8.30
2022-09-28T09:05:03.945Z,6.65
2022-09-28T09:07:31.036Z,5.90
2022-09-28T09:10:13.606Z,8.95
2022-09-28T09:12:49.570Z,9.00
2022-09-28T09:15:47.778Z,6.85
2022-09-28T09:18:22.430Z,7.15
2022-09-28T09:21:06.334Z,5.70
2022-09-28T09:23:37.423Z,9.27
2022-09-28T09:26:10.629Z,7.45
2022-09-28T09:29:03.429Z,5.95
2022-09-28T09:31:33.082Z,7.50
2022-09-28T09:34:18.791Z,4.55
2022-09-28T09:36:54.005Z,8.73
2022-09-28T09:39:44.160Z,3.08
2022-09-28T09:42:11.397Z,4.03
2022-09-28T09:44:59.068Z,4.93
2022-09-28T09:47:43.370Z,4.88
2022-09-28T09:50:29.869Z,1.90
2022-09-28T09:53:24.162Z,8.02
2022-09-28T09:55:59.837Z,2.90
2022-09-28T09:58:34.030Z,3.08
2022-09-28T10:01:10.912Z,10.18
2022-09-28T10:03:42.562Z,10.45
2022-09-28T10:06:13.955Z,9.73
2022-09-28T10:08:58.902Z,5.30
2022-09-28T10:11:36.789Z,5.53
2022-09-28T10:14:06.236Z,2.53
2022-09-28T10:16:33.405Z,2.85
2022-09-28T10:19:01.181Z,3.17
2022-09-28T10:21:28.957Z,3.30
2022-09-28T10:23:58.754Z,12.02
2022-09-28T10:26:37.654Z,6.60
2022-09-28T10:29:15.805Z,4.18
2022-09-28T10:31:46.443Z,3.47
2022-09-28T10:34:15.711Z,1.98
2022-09-28T10:37:09.974Z,3.88
2022-09-28T10:39:37.924Z,1.42
2022-09-28T10:42:17.952Z,2.78
2022-09-28T10:45:00.382Z,2.38
2022-09-28T10:47:32.893Z,1.58
2022-09-28T10:50:01.010Z,1.73
2022-09-28T10:52:40.882Z,7.30
2022-09-28T10:55:32.195Z,3.65
2022-09-28T10:58:24.666Z,2.17
2022-09-28T11:00:52.825Z,3.05
2022-09-28T11:03:22.758Z,2.03
2022-09-28T11:06:02.858Z,3.13
2022-09-28T11:08:38.647Z,2.00
2022-09-28T11:11:11.688Z,4.00
2022-09-28T11:13:42.973Z,3.10
2022-09-28T11:16:32.703Z,3.65
2022-09-28T11:19:05.999Z,1.50
2022-09-28T11:21:42.998Z,4.25
2022-09-28T11:24:19.053Z,5.30
2022-09-28T11:26:49.902Z,1.45
2022-09-28T11:29:54.818Z,4.63
2022-09-28T11:32:24.047Z,3.50
2022-09-28T11:34:59.556Z,4.88
2022-09-28T11:38:05.223Z,2.58
2022-09-28T11:41:03.994Z,5.45
2022-09-28T11:44:08.112Z,3.75
2022-09-28T11:47:02.818Z,4.18
2022-09-28T11:49:40.053Z,5.07
2022-09-28T11:52:29.334Z,5.78
2022-09-28T11:55:17.217Z,6.22
2022-09-28T11:57:50.698Z,2.58
2022-09-28T12:00:22.444Z,5.88
2022-09-28T12:03:13.731Z,3.03
2022-09-28T12:05:55.892Z,3.55
2022-09-28T12:08:34.856Z,2.90
2022-09-28T12:11:24.119Z,1.73
2022-09-28T12:13:54.178Z,2.25
2022-09-28T12:17:00.922Z,5.03
2022-09-28T12:19:32.384Z,2.15
2022-09-28T12:22:05.467Z,3.53
2022-09-28T12:24:42.437Z,3.30
2022-09-28T12:27:10.462Z,3.08
2022-09-28T12:29:57.959Z,4.65
2022-09-28T12:32:39.470Z,3.30
2022-09-28T12:35:24.446Z,6.97
2022-09-28T12:38:08.920Z,5.43
2022-09-28T12:40:59.096Z,2.47
2022-09-28T12:43:54.680Z,8.55
2022-09-28T12:46:49.097Z,5.65
2022-09-28T12:52:58.089Z,4.75
2022-09-28T12:55:40.162Z,4.50
2022-09-28T12:58:19.077Z,2.80
2022-09-28T13:01:05.573Z,3.25
2022-09-28T13:03:41.294Z,1.13
2022-09-28T13:06:20.145Z,1.83
2022-09-28T13:09:14.349Z,3.72
2022-09-28T13:11:41.727Z,2.60
2022-09-28T13:14:36.277Z,3.22
2022-09-28T13:17:28.886Z,2.83
2022-09-28T13:20:13.148Z,1.85
2022-09-28T13:23:00.445Z,2.47
2022-09-28T13:25:31.235Z,3.35
2022-09-28T13:28:03.395Z,1.73
2022-09-28T13:30:32.714Z,2.10
2022-09-28T13:33:03.377Z,2.25
2022-09-28T13:35:31.355Z,4.35
2022-09-28T13:38:31.567Z,1.38
2022-09-28T13:41:04.755Z,1.50
2022-09-28T13:43:57.863Z,5.95
2022-09-28T13:46:45.392Z,2.35
2022-09-28T13:49:22.639Z,6.03
2022-09-28T13:51:56.813Z,1.15
2022-09-28T13:54:45.049Z,2.55
2022-09-28T13:57:46.442Z,2.55
2022-09-28T14:00:18.772Z,5.85
2022-09-28T14:03:13.334Z,5.32
2022-09-28T14:06:07.548Z,6.30
2022-09-28T14:08:38.534Z,3.05
2022-09-28T14:11:36.030Z,5.35
2022-09-28T14:14:05.939Z,2.13
2022-09-28T14:16:38.390Z,3.00
2022-09-28T14:19:24.639Z,3.08
2022-09-28T14:21:54.422Z,2.70
2022-09-28T14:25:12.342Z,2.63
2022-09-28T14:28:02.563Z,2.83
2022-09-28T14:30:42.099Z,1.80
2022-09-28T14:33:21.498Z,2.03
2022-09-28T14:35:48.548Z,1.48
2022-09-28T14:38:38.255Z,3.80
2022-09-28T14:41:09.909Z,4.30
2022-09-28T14:43:45.887Z,2.55
2022-09-28T14:46:17.078Z,2.22
2022-09-28T14:48:51.175Z,2.42
2022-09-28T14:51:27.601Z,4.97
2022-09-28T14:54:01.260Z,4.47
2022-09-28T14:56:32.994Z,4.40
2022-09-28T14:59:00.919Z,2.05
2022-09-28T15:01:28.444Z,2.33
2022-09-28T15:03:57.201Z,1.05
2022-09-28T15:06:25.236Z,4.10
2022-09-28T15:08:52.333Z,2.00
2022-09-28T15:11:25.088Z,0.43
2022-09-28T15:14:06.408Z,0.90
2022-09-28T15:16:33.521Z,2.25
2022-09-28T15:19:06.220Z,1.92
2022-09-28T15:21:36.750Z,1.98
2022-09-28T15:24:23.752Z,1.60
2022-09-28T15:26:50.760Z,3.33
2022-09-28T15:29:23.105Z,1.98
2022-09-28T15:31:54.128Z,4.07
2022-09-28T15:34:52.801Z,2.40
2022-09-28T15:37:24.218Z,2.08
2022-09-28T15:39:52.694Z,1.98
2022-09-28T15:42:20.480Z,2.53
2022-09-28T15:45:26.728Z,3.58
2022-09-28T15:48:33.619Z,3.53
2022-09-28T15:51:10.847Z,1.75
2022-09-28T15:53:48.027Z,2.70
2022-09-28T15:56:15.095Z,0.73
2022-09-28T15:58:42.759Z,5.57
2022-09-28T16:01:47.976Z,3.13
2022-09-28T16:04:37.380Z,1.83
2022-09-28T16:07:13.160Z,1.90
2022-09-28T16:10:04.888Z,3.17
2022-09-28T16:12:42.601Z,1.65
2022-09-28T16:15:34.329Z,1.27
2022-09-28T16:18:20.793Z,2.15
2022-09-28T16:20:51.177Z,2.22
2022-09-28T16:23:25.906Z,3.78
2022-09-28T16:26:02.877Z,3.92
2022-09-28T16:28:34.515Z,3.80
2022-09-28T16:31:07.623Z,2.85
2022-09-28T16:33:43.855Z,2.05
2022-09-28T16:36:17.157Z,3.70
2022-09-28T16:38:47.682Z,2.53
2022-09-28T16:41:19.038Z,2.10
2022-09-28T16:43:47.012Z,2.33
2022-09-28T16:46:18.235Z,2.55
2022-09-28T16:48:50.365Z,1.88
2022-09-28T16:51:17.717Z,4.00
2022-09-28T16:54:14.768Z,3.40
2022-09-28T16:56:41.561Z,3.67
2022-09-28T16:59:13.619Z,4.20
2022-09-28T17:01:44.160Z,6.35
2022-09-28T17:04:12.142Z,3.63
2022-09-28T17:06:39.050Z,8.02
2022-09-28T17:09:07.198Z,3.45
2022-09-28T17:11:34.305Z,5.72
2022-09-28T17:14:03.457Z,3.65
2022-09-28T17:16:59.940Z,2.83
2022-09-28T17:19:28.610Z,4.28
2022-09-28T17:21:55.614Z,6.22
2022-09-28T17:24:22.399Z,6.00
2022-09-28T17:26:51.794Z,5.85
2022-09-28T17:29:18.982Z,5.38
2022-09-28T17:31:47.570Z,6.05
2022-09-28T17:34:16.399Z,2.92
2022-09-28T17:36:44.717Z,5.13
2022-09-28T17:39:17.471Z,7.18
2022-09-28T17:41:44.956Z,10.27
2022-09-28T17:44:16.376Z,12.13
2022-09-28T17:46:49.723Z,14.77
2022-09-28T17:49:17.599Z,8.40
2022-09-28T17:51:44.527Z,8.93
2022-09-28T17:54:13.071Z,8.18
2022-09-28T17:56:40.072Z,3.90
2022-09-28T17:59:10.975Z,6.38
2022-09-28T18:01:40.175Z,7.38
2022-09-28T18:04:08.904Z,8.32
2022-09-28T18:06:37.267Z,7.00
2022-09-28T18:09:05.167Z,5.07
2022-09-28T18:11:33.398Z,5.53
2022-09-28T18:14:00.836Z,4.95
2022-09-28T18:16:29.003Z,8.95
2022-09-28T18:18:56.313Z,5.68
2022-09-28T18:21:23.199Z,8.55
2022-09-28T18:23:50.166Z,7.47
2022-09-28T18:26:19.689Z,4.45
2022-09-28T18:28:47.284Z,4.22
2022-09-28T18:31:15.979Z,3.35
2022-09-28T18:33:43.411Z,7.97
2022-09-28T18:36:12.787Z,8.80
2022-09-28T18:38:40.092Z,7.78
2022-09-28T18:41:16.034Z,8.35
2022-09-28T18:43:53.168Z,9.57
2022-09-28T18:46:20.012Z,7.32
2022-09-28T18:48:49.686Z,10.05
2022-09-28T18:51:16.663Z,6.88
2022-09-28T18:53:43.914Z,6.43
2022-09-28T18:56:14.709Z,4.80
2022-09-28T18:58:43.041Z,13.90
2022-09-28T19:01:32.267Z,7.75
2022-09-28T19:04:01.186Z,7.20
2022-09-28T19:06:29.886Z,9.00
2022-09-28T19:08:57.385Z,10.77
2022-09-28T19:11:25.618Z,8.20
2022-09-28T19:13:54.440Z,15.10
2022-09-28T19:16:28.127Z,11.25
2022-09-28T19:18:59.133Z,13.82
2022-09-28T19:21:27.105Z,15.13
2022-09-28T19:23:55.551Z,12.32
2022-09-28T19:26:25.508Z,18.85
2022-09-28T19:28:53.119Z,18.77
2022-09-28T19:31:20.740Z,16.08
2022-09-28T19:33:48.879Z,23.13
2022-09-28T19:36:24.064Z,16.42
2022-09-28T19:38:52.546Z,24.30
2022-09-28T19:41:43.403Z,28.42
2022-09-28T19:44:30.087Z,43.95
2022-09-28T19:46:58.281Z,41.50
2022-09-28T19:49:27.495Z,40.00
2022-09-28T19:52:11.945Z,32.35
2022-09-28T19:54:39.993Z,29.23
2022-09-28T19:57:08.624Z,21.77
2022-09-28T19:59:37.244Z,23.25
2022-09-28T20:02:06.399Z,22.73
2022-09-28T20:04:33.773Z,24.88
2022-09-28T20:07:01.065Z,28.38
2022-09-28T20:09:28.204Z,23.05
2022-09-28T20:11:55.350Z,27.50
2022-09-28T20:14:24.533Z,29.52
2022-09-28T20:16:53.317Z,28.58
2022-09-28T20:19:21.833Z,27.88
2022-09-28T20:21:49.302Z,27.30
2022-09-28T20:24:17.283Z,24.33
2022-09-28T20:26:46.142Z,19.15
2022-09-28T20:29:13.950Z,17.45
2022-09-28T20:31:41.164Z,17.38
2022-09-28T20:34:09.171Z,16.85
2022-09-28T20:36:36.565Z,17.58
2022-09-28T20:39:04.074Z,21.45
2022-09-28T20:41:35.671Z,17.35
2022-09-28T20:44:05.953Z,15.93
2022-09-28T20:46:34.910Z,17.55
2022-09-28T20:49:02.035Z,14.05
2022-09-28T20:51:29.000Z,10.20
2022-09-28T20:53:57.647Z,14.20
2022-09-28T20:56:27.179Z,11.85
2022-09-28T20:58:54.899Z,9.43
2022-09-28T21:01:27.559Z,10.27
2022-09-28T21:04:02.776Z,15.95
2022-09-28T21:06:35.497Z,11.18
2022-09-28T21:09:03.181Z,13.43
2022-09-28T21:11:30.279Z,10.90
2022-09-28T21:13:59.822Z,12.80
2022-09-28T21:16:31.458Z,12.45
2022-09-28T21:18:58.609Z,10.13
2022-09-28T21:21:26.277Z,9.85
2022-09-28T21:23:54.571Z,12.45
2022-09-28T21:26:27.006Z,9.30
2022-09-28T21:28:55.835Z,13.10
2022-09-28T21:31:28.867Z,13.02
2022-09-28T21:33:57.152Z,12.30
2022-09-28T21:36:25.040Z,17.40
2022-09-28T21:38:53.491Z,13.73
2022-09-28T21:41:20.320Z,13.75
2022-09-28T21:43:47.103Z,17.52
2022-09-28T21:46:14.108Z,13.35
2022-09-28T21:48:41.135Z,10.48
2022-09-28T21:51:12.610Z,9.73
2022-09-28T21:53:39.671Z,17.73
2022-09-28T21:56:09.485Z,16.00
2022-09-28T21:58:36.463Z,10.63
2022-09-28T22:01:16.866Z,11.35
2022-09-28T22:03:47.880Z,13.68
2022-09-28T22:06:16.264Z,11.27
2022-09-28T22:08:43.598Z,13.73
2022-09-28T22:11:19.266Z,13.93
2022-09-28T22:13:51.554Z,11.70
2022-09-28T22:16:22.574Z,14.13
2022-09-28T22:18:50.444Z,10.95
2022-09-28T22:21:21.480Z,11.32
2022-09-28T22:23:48.691Z,12.32
2022-09-28T22:26:25.774Z,16.15
2022-09-28T22:28:55.690Z,16.33
2022-09-28T22:31:31.788Z,13.27
2022-09-28T22:33:59.264Z,11.10
2022-09-28T22:36:26.403Z,12.93
2022-09-28T22:38:55.375Z,11.13
2022-09-28T22:41:22.700Z,12.90
2022-09-28T22:43:52.432Z,12.52
2022-09-28T22:46:22.327Z,14.05
2022-09-28T22:48:51.208Z,12.57
2022-09-28T22:51:18.374Z,10.13
2022-09-28T22:53:45.423Z,11.45
2022-09-28T22:56:18.153Z,15.02
2022-09-28T22:58:45.697Z,15.50
2022-09-28T23:01:15.567Z,12.07
2022-09-28T23:03:42.834Z,12.63
2022-09-28T23:06:11.438Z,14.18
2022-09-28T23:08:38.643Z,12.38
2022-09-28T23:11:06.280Z,11.57
2022-09-28T23:13:33.803Z,12.68
2022-09-28T23:16:06.207Z,15.60
2022-09-28T23:18:35.413Z,13.13
2022-09-28T23:21:05.778Z,13.73
2022-09-28T23:23:33.522Z,16.15
2022-09-28T23:26:00.500Z,12.48
2022-09-28T23:28:28.211Z,13.70
2022-09-28T23:30:55.411Z,14.60
2022-09-28T23:33:22.707Z,14.23
2022-09-28T23:35:49.824Z,10.75
2022-09-28T23:38:18.425Z,9.18
2022-09-28T23:40:46.553Z,8.93
2022-09-28T23:43:14.445Z,10.35
2022-09-28T23:45:44.055Z,11.40
2022-09-28T23:48:11.079Z,8.88
2022-09-28T23:50:37.852Z,11.95
2022-09-28T23:53:05.652Z,12.65
2022-09-28T23:55:32.934Z,10.63
2022-09-28T23:57:59.972Z,11.38
